createdAt,value
2022-08-19T00:01:53.301Z,99700.81
2022-08-19T00:04:25.428Z,99700.88
2022-08-19T00:06:54.136Z,99692.78
2022-08-19T00:09:24.902Z,99688.03
2022-08-19T00:11:56.655Z,99695.22
2022-08-19T00:14:26.060Z,99696.25
2022-08-19T00:16:55.719Z,99693.13
2022-08-19T00:19:24.698Z,99691.88
2022-08-19T00:21:53.636Z,99692.69
2022-08-19T00:24:21.596Z,99684.28
2022-08-19T00:26:49.997Z,99674.59
2022-08-19T00:29:22.487Z,99672.88
2022-08-19T00:31:53.934Z,99676.28
2022-08-19T00:34:22.859Z,99658.56
2022-08-19T00:36:51.399Z,99655.78
2022-08-19T00:39:20.279Z,99660.94
2022-08-19T00:41:50.567Z,99667.16
2022-08-19T00:44:26.858Z,99660.31
2022-08-19T00:46:58.059Z,99663.50
2022-08-19T00:49:31.703Z,99655.50
2022-08-19T00:52:02.477Z,99640.91
2022-08-19T00:54:32.512Z,99647.06
2022-08-19T00:57:01.412Z,99639.13
2022-08-19T00:59:56.312Z,99629.25
2022-08-19T01:02:19.863Z,99624.94
2022-08-19T01:04:49.124Z,99620.16
2022-08-19T01:07:19.712Z,99624.25
2022-08-19T01:09:48.114Z,99635.81
2022-08-19T01:12:16.852Z,99638.72
2022-08-19T01:14:47.313Z,99643.03
2022-08-19T01:17:16.583Z,99649.31
2022-08-19T01:19:46.130Z,99639.06
2022-08-19T01:22:28.770Z,99635.25
2022-08-19T01:25:01.054Z,99635.56
2022-08-19T01:27:33.831Z,99633.34
2022-08-19T01:30:15.198Z,99631.47
2022-08-19T01:32:44.358Z,99636.66
2022-08-19T01:35:13.983Z,99632.59
2022-08-19T01:37:47.608Z,99633.97
2022-08-19T01:40:17.528Z,99645.00
2022-08-19T01:42:45.452Z,99643.44
2022-08-19T01:45:13.345Z,99636.34
2022-08-19T01:47:42.328Z,99638.63
2022-08-19T01:50:12.766Z,99641.81
2022-08-19T01:52:42.530Z,99645.53
2022-08-19T01:55:13.475Z,99647.72
2022-08-19T01:57:46.848Z,99647.53
2022-08-19T02:00:16.975Z,99652.47
2022-08-19T02:02:45.231Z,99659.09
2022-08-19T02:05:14.309Z,99648.81
2022-08-19T02:07:43.099Z,99649.97
2022-08-19T02:10:16.503Z,99639.47
2022-08-19T02:12:46.766Z,99650.09
2022-08-19T02:15:15.908Z,99657.44
2022-08-19T02:17:44.450Z,99664.63
2022-08-19T02:20:14.185Z,99652.66
2022-08-19T02:22:43.548Z,99661.88
2022-08-19T02:25:12.084Z,99657.47
2022-08-19T02:27:40.820Z,99657.13
2022-08-19T02:30:16.746Z,99656.75
2022-08-19T02:32:54.574Z,99658.78
2022-08-19T02:35:23.998Z,99668.06
2022-08-19T02:38:21.680Z,99671.78
2022-08-19T02:40:54.699Z,99666.09
2022-08-19T02:43:24.102Z,99659.75
2022-08-19T02:45:53.609Z,99651.97
2022-08-19T02:48:23.868Z,99654.25
2022-08-19T02:50:56.642Z,99664.28
2022-08-19T02:53:26.324Z,99669.22
2022-08-19T02:55:54.896Z,99671.66
2022-08-19T02:58:23.973Z,99659.88
2022-08-19T03:00:57.642Z,99663.53
2022-08-19T03:03:25.904Z,99663.00
2022-08-19T03:05:56.259Z,99657.31
2022-08-19T03:08:26.485Z,99668.88
2022-08-19T03:10:55.044Z,99664.69
2022-08-19T03:13:25.001Z,99662.25
2022-08-19T03:15:54.515Z,99664.25
2022-08-19T03:18:23.175Z,99661.03
2022-08-19T03:20:55.617Z,99661.31
2022-08-19T03:23:24.053Z,99663.88
2022-08-19T03:25:58.199Z,99672.72
2022-08-19T03:28:32.741Z,99665.53
2022-08-19T03:31:05.086Z,99673.63
2022-08-19T03:33:53.980Z,99676.00
2022-08-19T03:36:25.163Z,99665.13
2022-08-19T03:38:59.645Z,99664.88
2022-08-19T03:41:34.235Z,99669.53
2022-08-19T03:44:17.743Z,99669.44
2022-08-19T03:46:48.997Z,99672.44
2022-08-19T03:49:18.112Z,99668.34
2022-08-19T03:51:48.267Z,99663.19
2022-08-19T03:54:19.828Z,99675.94
2022-08-19T03:56:50.008Z,99678.50
2022-08-19T03:59:21.202Z,99685.44
2022-08-19T04:01:51.412Z,99687.19
2022-08-19T04:04:20.032Z,99692.75
2022-08-19T04:06:48.394Z,99684.47
2022-08-19T04:09:17.057Z,99689.47
2022-08-19T04:11:47.644Z,99693.22
2022-08-19T04:14:18.950Z,99689.84
2022-08-19T04:16:47.281Z,99689.88
2022-08-19T04:19:18.559Z,99689.09
2022-08-19T04:21:48.877Z,99687.56
2022-08-19T04:24:16.920Z,99696.41
2022-08-19T04:26:45.521Z,99689.72
2022-08-19T04:29:16.360Z,99693.72
2022-08-19T04:31:46.261Z,99687.34
2022-08-19T04:34:18.206Z,99690.47
2022-08-19T04:36:47.030Z,99684.16
2022-08-19T04:39:17.565Z,99691.53
2022-08-19T04:42:03.165Z,99690.38
2022-08-19T04:44:33.182Z,99686.56
2022-08-19T04:47:02.232Z,99680.84
2022-08-19T04:49:41.174Z,99693.44
2022-08-19T04:52:10.237Z,99689.28
2022-08-19T04:54:39.534Z,99695.25
2022-08-19T04:57:11.394Z,99693.81
2022-08-19T04:59:40.962Z,99694.63
2022-08-19T05:02:11.290Z,99694.81
2022-08-19T05:04:41.155Z,99698.09
2022-08-19T05:07:10.930Z,99697.56
2022-08-19T05:09:57.105Z,99691.47
2022-08-19T05:12:28.944Z,99697.34
2022-08-19T05:14:58.381Z,99698.63
2022-08-19T05:17:28.994Z,99701.53
2022-08-19T05:20:18.247Z,99707.44
2022-08-19T05:22:48.336Z,99705.78
2022-08-19T05:25:19.470Z,99707.38
2022-08-19T05:27:47.430Z,99703.34
2022-08-19T05:30:16.415Z,99702.53
2022-08-19T05:32:44.946Z,99700.91
2022-08-19T05:35:14.560Z,99708.78
2022-08-19T05:37:42.981Z,99714.41
2022-08-19T05:40:12.247Z,99711.94
2022-08-19T05:42:40.632Z,99718.25
2022-08-19T05:45:09.999Z,99714.09
2022-08-19T05:47:40.603Z,99717.88
2022-08-19T05:50:10.857Z,99720.38
2022-08-19T05:52:45.900Z,99721.31
2022-08-19T05:55:18.499Z,99730.72
2022-08-19T05:57:46.375Z,99731.44
2022-08-19T06:00:15.683Z,99733.91
2022-08-19T06:02:43.869Z,99737.38
2022-08-19T06:05:12.892Z,99743.38
2022-08-19T06:07:42.660Z,99753.91
2022-08-19T06:10:13.410Z,99765.19
2022-08-19T06:12:41.656Z,99762.84
2022-08-19T06:15:12.234Z,99773.81
2022-08-19T06:17:40.397Z,99763.91
2022-08-19T06:20:13.025Z,99774.47
2022-08-19T06:22:44.223Z,99774.91
2022-08-19T06:25:13.782Z,99785.69
2022-08-19T06:27:58.972Z,99785.00
2022-08-19T06:30:30.681Z,99784.56
2022-08-19T06:32:58.794Z,99789.50
2022-08-19T06:35:28.060Z,99796.88
2022-08-19T06:37:57.902Z,99807.69
2022-08-19T06:40:26.705Z,99818.53
2022-08-19T06:42:55.498Z,99808.16
2022-08-19T06:45:34.934Z,99804.66
2022-08-19T06:48:04.897Z,99803.31
2022-08-19T06:50:33.119Z,99806.53
2022-08-19T06:53:04.565Z,99825.72
2022-08-19T06:55:33.528Z,99812.03
2022-08-19T06:58:04.659Z,99814.81
2022-08-19T07:00:33.000Z,99808.78
2022-08-19T07:03:06.103Z,99809.84
2022-08-19T07:05:45.304Z,99806.56
2022-08-19T07:08:15.535Z,99808.94
2022-08-19T07:10:49.065Z,99812.16
2022-08-19T07:13:17.048Z,99821.28
2022-08-19T07:15:47.466Z,99822.13
2022-08-19T07:18:15.401Z,99827.56
2022-08-19T07:20:44.162Z,99815.91
2022-08-19T07:23:15.784Z,99815.09
2022-08-19T07:25:52.953Z,99821.63
2022-08-19T07:28:24.637Z,99810.16
2022-08-19T07:30:53.866Z,99815.03
2022-08-19T07:33:22.140Z,99811.03
2022-08-19T07:35:51.048Z,99811.00
2022-08-19T07:38:18.974Z,99807.75
2022-08-19T07:40:48.720Z,99811.13
2022-08-19T07:43:17.868Z,99810.41
2022-08-19T07:45:48.296Z,99804.09
2022-08-19T07:48:16.452Z,99797.28
2022-08-19T07:50:44.893Z,99814.28
2022-08-19T07:53:14.249Z,99825.41
2022-08-19T07:55:44.115Z,99826.09
2022-08-19T07:58:17.644Z,99811.84
2022-08-19T08:00:47.897Z,99818.81
2022-08-19T08:03:18.730Z,99816.06
2022-08-19T08:06:04.601Z,99821.00
2022-08-19T08:08:50.598Z,99818.44
2022-08-19T08:11:23.948Z,99821.19
2022-08-19T08:14:01.060Z,99818.56
2022-08-19T08:16:34.697Z,99808.94
2022-08-19T08:19:02.945Z,99812.59
2022-08-19T08:21:36.095Z,99809.88
2022-08-19T08:24:04.559Z,99807.91
2022-08-19T08:26:34.507Z,99810.72
2022-08-19T08:29:10.885Z,99805.81
2022-08-19T08:31:42.773Z,99818.72
2022-08-19T08:34:14.406Z,99818.63
2022-08-19T08:36:45.943Z,99810.94
2022-08-19T08:39:15.960Z,99818.28
2022-08-19T08:41:53.616Z,99812.47
2022-08-19T08:44:30.795Z,99815.44
2022-08-19T08:47:02.831Z,99823.88
2022-08-19T08:49:35.837Z,99822.47
2022-08-19T08:52:07.111Z,99824.50
2022-08-19T08:54:39.382Z,99810.81
2022-08-19T08:57:17.540Z,99805.88
2022-08-19T08:59:52.313Z,99813.00
2022-08-19T09:02:20.865Z,99803.44
2022-08-19T09:04:49.487Z,99812.56
2022-08-19T09:07:38.846Z,99803.44
2022-08-19T09:10:16.443Z,99802.16
2022-08-19T09:12:55.971Z,99809.47
2022-08-19T09:15:36.968Z,99808.38
2022-08-19T09:18:07.492Z,99799.72
2022-08-19T09:20:37.676Z,99806.09
2022-08-19T09:23:11.764Z,99805.25
2022-08-19T09:25:41.289Z,99806.69
2022-08-19T09:28:15.056Z,99808.59
2022-08-19T09:30:53.720Z,99808.94
2022-08-19T09:33:23.466Z,99816.50
2022-08-19T09:35:53.587Z,99817.16
2022-08-19T09:38:22.541Z,99810.59
2022-08-19T09:40:51.510Z,99811.53
2022-08-19T09:43:33.113Z,99810.94
2022-08-19T09:46:03.984Z,99804.28
2022-08-19T09:48:33.031Z,99800.19
2022-08-19T09:51:09.061Z,99805.88
2022-08-19T09:53:40.695Z,99801.78
2022-08-19T09:56:09.433Z,99802.13
2022-08-19T09:58:39.056Z,99794.09
2022-08-19T10:01:09.730Z,99799.41
2022-08-19T10:03:38.653Z,99800.97
2022-08-19T10:06:15.077Z,99807.97
2022-08-19T10:08:49.901Z,99808.69
2022-08-19T10:11:27.200Z,99803.44
2022-08-19T10:14:03.196Z,99806.66
2022-08-19T10:16:32.649Z,99815.13
2022-08-19T10:19:07.434Z,99814.75
2022-08-19T10:21:36.309Z,99808.63
2022-08-19T10:24:09.456Z,99813.41
2022-08-19T10:26:42.983Z,99814.78
2022-08-19T10:29:12.832Z,99811.03
2022-08-19T10:32:00.785Z,99807.97
2022-08-19T10:34:31.854Z,99810.78
2022-08-19T10:37:02.150Z,99805.56
2022-08-19T10:39:32.741Z,99807.75
2022-08-19T10:42:11.668Z,99815.31
2022-08-19T10:44:40.518Z,99815.34
2022-08-19T10:47:17.746Z,99805.53
2022-08-19T10:50:12.277Z,99809.56
2022-08-19T10:52:49.561Z,99805.34
2022-08-19T10:55:37.422Z,99795.44
2022-08-19T10:58:05.981Z,99801.97
2022-08-19T11:00:35.179Z,99792.47
2022-08-19T11:03:07.008Z,99781.28
2022-08-19T11:05:40.069Z,99784.69
2022-08-19T11:08:21.194Z,99788.28
2022-08-19T11:10:59.162Z,99795.69
2022-08-19T11:13:27.456Z,99780.03
2022-08-19T11:16:07.111Z,99779.78
2022-08-19T11:18:39.783Z,99764.41
2022-08-19T11:21:18.045Z,99764.88
2022-08-19T11:23:47.278Z,99771.38
2022-08-19T11:26:15.990Z,99760.84
2022-08-19T11:28:43.959Z,99755.69
2022-08-19T11:31:14.285Z,99738.22
2022-08-19T11:33:47.601Z,99725.69
2022-08-19T11:36:17.114Z,99734.06
2022-08-19T11:38:45.810Z,99726.69
2022-08-19T11:41:13.794Z,99748.16
2022-08-19T11:43:41.998Z,99749.53
2022-08-19T11:46:12.867Z,99736.72
2022-08-19T11:48:41.316Z,99754.97
2022-08-19T11:51:13.032Z,99746.66
2022-08-19T11:53:41.619Z,99734.28
2022-08-19T11:56:11.167Z,99733.56
2022-08-19T11:58:39.438Z,99738.28
2022-08-19T12:01:09.449Z,99728.91
2022-08-19T12:03:37.660Z,99743.75
2022-08-19T12:06:07.500Z,99732.06
2022-08-19T12:08:37.535Z,99735.50
2022-08-19T12:11:08.980Z,99728.56
2022-08-19T12:13:37.352Z,99723.38
2022-08-19T12:16:13.397Z,99718.88
2022-08-19T12:18:44.588Z,99743.34
2022-08-19T12:21:14.695Z,99720.53
2022-08-19T12:23:46.086Z,99713.75
2022-08-19T12:26:14.323Z,99719.44
2022-08-19T12:28:43.075Z,99718.06
2022-08-19T12:31:13.141Z,99716.22
2022-08-19T12:33:41.802Z,99717.28
2022-08-19T12:36:15.039Z,99708.31
2022-08-19T12:38:45.047Z,99718.06
2022-08-19T12:41:18.783Z,99714.81
2022-08-19T12:43:50.267Z,99720.09
2022-08-19T12:46:19.933Z,99713.16
2022-08-19T12:48:54.082Z,99715.75
2022-08-19T12:51:23.427Z,99713.47
2022-08-19T12:53:53.048Z,99717.25
2022-08-19T12:56:23.169Z,99727.44
2022-08-19T12:58:52.939Z,99726.03
2022-08-19T13:01:22.768Z,99707.00
2022-08-19T13:03:54.311Z,99716.66
2022-08-19T13:06:22.745Z,99705.69
2022-08-19T13:08:55.427Z,99709.72
2022-08-19T13:11:26.570Z,99713.44
2022-08-19T13:13:56.220Z,99719.66
2022-08-19T13:16:24.815Z,99707.75
2022-08-19T13:18:54.821Z,99717.41
2022-08-19T13:21:25.490Z,99725.13
2022-08-19T13:23:56.212Z,99734.53
2022-08-19T13:26:24.375Z,99737.50
2022-08-19T13:29:10.731Z,99731.91
2022-08-19T13:31:59.151Z,99747.88
2022-08-19T13:34:34.966Z,99733.88
2022-08-19T13:37:05.048Z,99728.84
2022-08-19T13:39:35.729Z,99731.75
2022-08-19T13:42:05.746Z,99725.63
2022-08-19T13:44:34.471Z,99732.66
2022-08-19T13:47:06.991Z,99741.75
2022-08-19T13:49:36.820Z,99734.06
2022-08-19T13:52:06.616Z,99730.00
2022-08-19T13:54:35.772Z,99734.13
2022-08-19T13:57:04.744Z,99724.66
2022-08-19T13:59:33.593Z,99727.56
2022-08-19T14:02:02.153Z,99738.50
2022-08-19T14:04:31.005Z,99750.25
2022-08-19T14:06:59.966Z,99752.78
2022-08-19T14:09:29.390Z,99734.59
2022-08-19T14:12:00.033Z,99738.94
2022-08-19T14:14:30.727Z,99738.03
2022-08-19T14:16:59.228Z,99740.94
2022-08-19T14:19:29.985Z,99744.78
2022-08-19T14:21:59.368Z,99742.41
2022-08-19T14:24:27.246Z,99748.19
2022-08-19T14:26:55.561Z,99735.13
2022-08-19T14:29:25.212Z,99733.16
2022-08-19T14:31:53.878Z,99717.22
2022-08-19T14:34:23.410Z,99715.22
2022-08-19T14:36:51.465Z,99701.59
2022-08-19T14:39:19.730Z,99681.00
2022-08-19T14:41:47.798Z,99669.03
2022-08-19T14:44:15.968Z,99675.53
2022-08-19T14:46:48.580Z,99670.22
2022-08-19T14:49:19.025Z,99662.69
2022-08-19T14:51:48.092Z,99668.94
2022-08-19T14:54:16.198Z,99665.84
2022-08-19T14:56:44.538Z,99659.72
2022-08-19T14:59:12.915Z,99667.47
2022-08-19T15:01:41.495Z,99660.16
2022-08-19T15:04:11.357Z,99677.97
2022-08-19T15:06:39.773Z,99672.38
2022-08-19T15:09:08.302Z,99667.16
2022-08-19T15:11:38.176Z,99671.06
2022-08-19T15:14:07.931Z,99682.94
2022-08-19T15:16:36.100Z,99675.88
2022-08-19T15:19:04.750Z,99671.13
2022-08-19T15:21:34.600Z,99680.38
2022-08-19T15:24:03.377Z,99680.91
2022-08-19T15:26:33.283Z,99690.34
2022-08-19T15:29:02.123Z,99693.09
2022-08-19T15:31:33.025Z,99686.03
2022-08-19T15:34:00.825Z,99687.09
2022-08-19T15:36:29.702Z,99683.34
2022-08-19T15:39:00.098Z,99694.25
2022-08-19T15:41:32.935Z,99694.88
2022-08-19T15:44:04.834Z,99688.81
2022-08-19T15:46:35.059Z,99689.00
2022-08-19T15:49:03.479Z,99680.66
2022-08-19T15:51:33.257Z,99693.03
2022-08-19T15:54:06.436Z,99682.19
2022-08-19T15:56:57.525Z,99684.84
2022-08-19T15:59:47.409Z,99681.47
2022-08-19T16:02:33.990Z,99678.91
2022-08-19T16:05:19.781Z,99684.72
2022-08-19T16:07:48.118Z,99690.50
2022-08-19T16:10:27.482Z,99690.78
2022-08-19T16:12:57.848Z,99687.75
2022-08-19T16:15:27.955Z,99671.41
2022-08-19T16:17:57.851Z,99678.63
2022-08-19T16:20:28.025Z,99680.13
2022-08-19T16:22:58.842Z,99678.22
2022-08-19T16:25:30.102Z,99675.47
2022-08-19T16:28:06.418Z,99681.53
2022-08-19T16:30:35.149Z,99680.91
2022-08-19T16:33:03.449Z,99682.59
2022-08-19T16:35:31.641Z,99686.69
2022-08-19T16:38:00.122Z,99694.94
2022-08-19T16:40:29.717Z,99689.19
2022-08-19T16:42:57.860Z,99694.41
2022-08-19T16:45:26.124Z,99699.59
2022-08-19T16:47:54.282Z,99691.31
2022-08-19T16:50:39.043Z,99697.50
2022-08-19T16:53:10.719Z,99702.25
2022-08-19T16:55:41.171Z,99706.19
2022-08-19T16:58:09.587Z,99705.25
2022-08-19T17:00:37.555Z,99720.19
2022-08-19T17:03:10.007Z,99715.38
2022-08-19T17:05:44.159Z,99711.44
2022-08-19T17:08:13.828Z,99718.84
2022-08-19T17:11:01.941Z,99714.84
2022-08-19T17:13:32.417Z,99712.41
2022-08-19T17:16:01.398Z,99727.91
2022-08-19T17:18:33.442Z,99720.44
2022-08-19T17:21:02.378Z,99716.25
2022-08-19T17:23:42.327Z,99719.38
2022-08-19T17:26:15.872Z,99724.94
2022-08-19T17:28:47.491Z,99732.13
2022-08-19T17:31:16.025Z,99726.25
2022-08-19T17:33:48.515Z,99731.06
2022-08-19T17:36:17.558Z,99726.44
2022-08-19T17:38:46.193Z,99730.66
2022-08-19T17:41:16.377Z,99737.97
2022-08-19T17:43:45.242Z,99739.41
2022-08-19T17:46:18.183Z,99729.28
2022-08-19T17:48:52.114Z,99733.97
2022-08-19T17:51:23.706Z,99725.53
2022-08-19T17:53:55.598Z,99734.00
2022-08-19T17:56:29.153Z,99736.00
2022-08-19T17:59:00.486Z,99741.34
2022-08-19T18:01:44.010Z,99743.66
2022-08-19T18:04:22.209Z,99739.25
2022-08-19T18:06:53.536Z,99746.69
2022-08-19T18:09:24.452Z,99743.03
2022-08-19T18:11:56.651Z,99741.47
2022-08-19T18:14:33.522Z,99742.25
2022-08-19T18:17:06.261Z,99747.72
2022-08-19T18:19:41.055Z,99749.84
2022-08-19T18:22:12.015Z,99750.78
2022-08-19T18:24:41.758Z,99754.53
2022-08-19T18:27:14.538Z,99751.75
2022-08-19T18:29:43.724Z,99752.19
2022-08-19T18:32:16.352Z,99755.28
2022-08-19T18:34:46.631Z,99760.44
2022-08-19T18:37:15.152Z,99760.03
2022-08-19T18:40:02.200Z,99759.44
2022-08-19T18:42:49.129Z,99765.78
2022-08-19T18:45:35.326Z,99763.31
2022-08-19T18:48:27.308Z,99766.59
2022-08-19T18:50:58.320Z,99773.13
2022-08-19T18:53:29.609Z,99778.84
2022-08-19T18:56:01.771Z,99779.25
2022-08-19T18:58:34.452Z,99785.59
2022-08-19T19:01:11.195Z,99787.38
2022-08-19T19:03:45.915Z,99789.00
2022-08-19T19:06:15.233Z,99797.13
2022-08-19T19:08:44.970Z,99795.66
2022-08-19T19:11:13.109Z,99805.03
2022-08-19T19:13:54.441Z,99802.75
2022-08-19T19:16:24.701Z,99807.78
2022-08-19T19:18:53.985Z,99817.94
2022-08-19T19:21:24.196Z,99811.84
2022-08-19T19:23:53.966Z,99819.31
2022-08-19T19:26:22.669Z,99823.78
2022-08-19T19:28:52.798Z,99829.56
2022-08-19T19:31:24.145Z,99835.72
2022-08-19T19:33:52.321Z,99835.47
2022-08-19T19:36:21.078Z,99843.38
2022-08-19T19:38:49.327Z,99839.22
2022-08-19T19:41:19.730Z,99848.16
2022-08-19T19:44:04.543Z,99850.13
2022-08-19T19:46:43.053Z,99847.69
2022-08-19T19:49:17.512Z,99852.16
2022-08-19T19:51:48.389Z,99847.88
2022-08-19T19:54:23.418Z,99856.66
2022-08-19T19:56:52.185Z,99852.28
2022-08-19T19:59:21.149Z,99861.03
2022-08-19T20:01:50.517Z,99862.75
2022-08-19T20:04:23.286Z,99869.72
2022-08-19T20:06:53.569Z,99864.38
2022-08-19T20:09:35.006Z,99872.81
2022-08-19T20:12:11.861Z,99885.72
2022-08-19T20:14:47.880Z,99879.16
2022-08-19T20:17:23.032Z,99885.56
2022-08-19T20:19:51.344Z,99886.41
2022-08-19T20:22:27.605Z,99884.75
2022-08-19T20:25:06.511Z,99888.72
2022-08-19T20:27:40.104Z,99892.13
2022-08-19T20:30:13.916Z,99901.31
2022-08-19T20:32:53.074Z,99902.03
2022-08-19T20:35:23.174Z,99907.09
2022-08-19T20:37:54.929Z,99910.25
2022-08-19T20:40:27.103Z,99905.69
2022-08-19T20:42:58.157Z,99911.81
2022-08-19T20:45:32.059Z,99908.88
2022-08-19T20:48:03.682Z,99905.03
2022-08-19T20:50:33.450Z,99910.44
2022-08-19T20:53:02.615Z,99908.41
2022-08-19T20:55:34.620Z,99902.41
2022-08-19T20:58:03.841Z,99905.09
2022-08-19T21:00:33.738Z,99909.41
2022-08-19T21:03:05.146Z,99906.84
2022-08-19T21:05:34.175Z,99900.84
2022-08-19T21:08:04.810Z,99906.91
2022-08-19T21:10:33.774Z,99903.28
2022-08-19T21:13:04.672Z,99908.22
2022-08-19T21:15:39.640Z,99912.41
2022-08-19T21:18:09.403Z,99914.06
2022-08-19T21:20:37.408Z,99911.94
2022-08-19T21:23:06.196Z,99914.66
2022-08-19T21:25:34.834Z,99914.06
2022-08-19T21:28:03.562Z,99918.25
2022-08-19T21:30:32.719Z,99909.72
2022-08-19T21:33:01.731Z,99910.88
2022-08-19T21:35:31.762Z,99911.72
2022-08-19T21:37:59.705Z,99912.72
2022-08-19T21:40:28.418Z,99912.38
2022-08-19T21:42:57.215Z,99919.72
2022-08-19T21:45:25.721Z,99916.59
2022-08-19T21:47:54.360Z,99930.09
2022-08-19T21:50:25.869Z,99918.59
2022-08-19T21:52:58.258Z,99918.09
2022-08-19T21:55:26.363Z,99921.28
2022-08-19T21:58:00.487Z,99921.81
2022-08-19T22:00:32.130Z,99933.66
2022-08-19T22:03:01.464Z,99939.53
2022-08-19T22:05:33.491Z,99938.56
2022-08-19T22:08:06.358Z,99928.88
2022-08-19T22:10:35.490Z,99932.63
2022-08-19T22:13:06.647Z,99931.13
2022-08-19T22:15:35.813Z,99937.13
2022-08-19T22:18:06.169Z,99930.28
2022-08-19T22:20:35.799Z,99926.16
2022-08-19T22:23:09.227Z,99921.00
2022-08-19T22:25:41.990Z,99924.63
2022-08-19T22:28:19.026Z,99924.16
2022-08-19T22:30:56.028Z,99927.47
2022-08-19T22:33:25.820Z,99928.16
2022-08-19T22:35:56.988Z,99926.16
2022-08-19T22:38:27.458Z,99931.16
2022-08-19T22:40:57.258Z,99934.72
2022-08-19T22:43:30.264Z,99940.50
2022-08-19T22:46:00.434Z,99948.28
2022-08-19T22:48:31.322Z,99932.44
2022-08-19T22:51:18.000Z,99938.72
2022-08-19T22:53:48.631Z,99940.09
2022-08-19T22:56:19.408Z,99938.00
2022-08-19T22:58:50.717Z,99941.28
2022-08-19T23:01:29.685Z,99944.25
2022-08-19T23:03:59.320Z,99933.16
2022-08-19T23:06:33.820Z,99927.56
2022-08-19T23:09:06.876Z,99930.53
2022-08-19T23:11:41.433Z,99932.00
2022-08-19T23:14:11.275Z,99931.50
2022-08-19T23:16:41.512Z,99930.47
2022-08-19T23:19:10.963Z,99934.28
2022-08-19T23:21:39.537Z,99929.00
2022-08-19T23:24:09.878Z,99918.06
2022-08-19T23:26:38.344Z,99926.13
2022-08-19T23:29:36.486Z,99919.53
2022-08-19T23:32:06.942Z,99916.22
2022-08-19T23:34:34.837Z,99919.91
2022-08-19T23:37:03.304Z,99922.75
2022-08-19T23:39:36.219Z,99926.72
2022-08-19T23:42:11.454Z,99922.81
2022-08-19T23:44:51.095Z,99933.16
2022-08-19T23:47:20.814Z,99929.09
2022-08-19T23:49:49.327Z,99927.03
2022-08-19T23:52:17.403Z,99922.03
2022-08-19T23:54:47.238Z,99925.75
2022-08-19T23:57:15.404Z,99934.31
2022-08-19T23:59:45.615Z,99932.28
